Terminal Aerodrome Forecast
Issued by NWS Wilmington, OH

Home | Current Version | Previous Version | Text Only | Print | Product List | Glossary On
Versions: 1 2 3 4 5 6 7 8 9 10 11 12 13 14 15 16 17 18 19 20 21 22 23 24 25 26
000
FTUS41 KILN 301121
TAFCMH
TAF
KCMH 301121Z 3012/0112 16007KT 4SM BR SCT100 BKN250
      TEMPO 3012/3013 1SM BR OVC003
     FM301400 19013G22KT P6SM SCT080 BKN250
     FM010000 17011KT P6SM SCT070 BKN220
     FM010500 17013KT P6SM VCSH BKN130 WS020/19045KT
     FM010800 17014G21KT P6SM -SHRA VCTS SCT030CB BKN070
     FM011100 19015G23KT P6SM -SHRA VCTS OVC027CB=

USA.gov is the U.S. government's official web portal to all federal, state and local government web resources and services.